Time;durP1;ratioP1;P1;durP2;ratioP2;P2;SDS_P1;SDS_P2;PMS_P1;PMS_P2;Temp;Humidity;BMP_temperature;BMP_pressure;BME280_temperature;BME280_humidity;BME280_pressure;Samples;Min_cycle;Max_cycle;Signal;HPM_P1;HPM_P2
2022/12/09 00:00:58;;;;;;;5.80;4.83;;;;;;;;;;5129293;28;20047;-57
2022/12/09 00:12:19;;;;;;;3.50;3.17;;;;;;;;;;5121216;28;20034;-57
2022/12/09 00:15:21;;;;;;;6.90;4.83;;;;;;;;;;5108376;28;20370;-56
2022/12/09 00:18:17;;;;;;;4.63;3.50;;;;;;;;;;5129762;28;20036;-57
2022/12/09 00:21:25;;;;;;;5.77;3.30;;;;;;;;;;5022667;28;20515;-58
2022/12/09 00:24:01;;;;;;;5.03;3.37;;;;;;;;;;5116938;28;20132;-57
2022/12/09 00:30:06;;;;;;;4.73;3.97;;;;;;;;;;5046754;28;20030;-57
2022/12/09 00:32:45;;;;;;;3.20;2.90;;;;;;;;;;5125010;28;20028;-58
2022/12/09 00:35:22;;;;;;;8.40;3.63;;;;;;;;;;5129449;28;20031;-57
2022/12/09 00:38:19;;;;;;;6.17;4.10;;;;;;;;;;5059645;28;20051;-57
2022/12/09 00:41:01;;;;;;;5.17;3.77;;;;;;;;;;5128803;28;20066;-58
2022/12/09 00:46:27;;;;;;;4.97;3.63;;;;;;;;;;5066053;28;20033;-57
2022/12/09 00:49:14;;;;;;;3.93;3.53;;;;;;;;;;5102187;28;20032;-58
2022/12/09 00:52:05;;;;;;;3.97;3.47;;;;;;;;;;5128270;28;20046;-57
2022/12/09 00:57:50;;;;;;;4.30;3.70;;;;;;;;;;5065124;28;20536;-57
2022/12/09 01:00:40;;;;;;;5.87;4.33;;;;;;;;;;5064967;28;20097;-57
2022/12/09 01:03:45;;;;;;;5.75;4.05;;;;;;;;;;5056258;28;20025;-56
2022/12/09 01:06:38;;;;;;;6.87;4.70;;;;;;;;;;5026194;28;20036;-56
2022/12/09 01:09:16;;;;;;;6.73;5.17;;;;;;;;;;5128732;28;20016;-57
2022/12/09 01:12:02;;;;;;;4.80;3.80;;;;;;;;;;5110971;28;20027;-57
2022/12/09 01:20:32;;;;;;;5.67;4.43;;;;;;;;;;5113714;28;20065;-56
2022/12/09 01:23:02;;;;;;;6.73;4.50;;;;;;;;;;5107210;28;20038;-57
2022/12/09 01:26:05;;;;;;;8.80;4.90;;;;;;;;;;5110029;28;20047;-57
2022/12/09 01:28:51;;;;;;;3.87;3.57;;;;;;;;;;5128439;28;20087;-56
2022/12/09 01:32:02;;;;;;;4.83;3.87;;;;;;;;;;5110267;28;20034;-57
2022/12/09 01:34:34;;;;;;;5.90;4.03;;;;;;;;;;5128308;28;20083;-58
2022/12/09 01:37:04;;;;;;;5.57;3.93;;;;;;;;;;5106904;28;20067;-56
2022/12/09 01:39:39;;;;;;;6.17;4.73;;;;;;;;;;5085025;28;20144;-57
2022/12/09 01:42:32;;;;;;;6.57;5.90;;;;;;;;;;5084697;28;20044;-56
2022/12/09 01:48:25;;;;;;;5.20;4.23;;;;;;;;;;5088442;28;20034;-56
2022/12/09 01:51:12;;;;;;;4.78;4.30;;;;;;;;;;5089213;28;20025;-55
2022/12/09 01:54:08;;;;;;;5.00;2.83;;;;;;;;;;5089372;28;20111;-58
2022/12/09 01:59:51;;;;;;;5.50;4.83;;;;;;;;;;5052201;28;20036;-57
2022/12/09 02:02:42;;;;;;;5.93;4.83;;;;;;;;;;5089058;28;20108;-57
2022/12/09 02:05:17;;;;;;;;;;;;;;;;;;5089234;28;20040;-55
2022/12/09 02:07:53;;;;;;;;;;;;;;;;;;;;;
2022/12/09 02:10:42;;;;;;;6.23;4.17;;;;;;;;;;5106937;28;20052;-57
2022/12/09 02:16:35;;;;;;;7.50;5.97;;;;;;;;;;5099200;28;20476;-56
2022/12/09 02:20:02;;;;;;;;;;;;;;;;;;;;;
2022/12/09 02:26:10;;;;;;;6.40;4.77;;;;;;;;;;5004890;28;20034;-55
2022/12/09 02:31:56;;;;;;;5.27;4.20;;;;;;;;;;5018575;28;20508;-56
2022/12/09 02:34:48;;;;;;;6.07;5.47;;;;;;;;;;5029088;28;20160;-57
2022/12/09 02:37:52;;;;;;;5.73;4.30;;;;;;;;;;5104080;28;20039;-59
2022/12/09 02:40:51;;;;;;;5.07;3.83;;;;;;;;;;5113409;28;20023;-57
2022/12/09 02:43:29;;;;;;;8.60;5.03;;;;;;;;;;5075561;28;20071;-56
2022/12/09 02:46:20;;;;;;;4.17;3.80;;;;;;;;;;5129919;28;20118;-57
2022/12/09 02:49:10;;;;;;;11.75;6.03;;;;;;;;;;5130745;28;20114;-57
2022/12/09 02:51:49;;;;;;;8.68;6.28;;;;;;;;;;5130537;28;20050;-56
2022/12/09 02:58:20;;;;;;;;;;;;;;;;;;;;;
2022/12/09 03:01:07;;;;;;;;;;;;;;;;;;;;;
2022/12/09 03:03:38;;;;;;;13.13;8.10;;;;;;;;;;4983529;28;20091;-56
2022/12/09 03:06:04;;;;;;;;;;;;;;;;;;5029258;28;20021;-58
2022/12/09 03:15:20;;;;;;;9.90;6.50;;;;;;;;;;4989463;28;20035;-58
2022/12/09 03:18:00;;;;;;;5.33;4.23;;;;;;;;;;5063708;28;20052;-58
2022/12/09 03:23:26;;;;;;;5.73;5.20;;;;;;;;;;5060277;28;20043;-56
2022/12/09 03:26:22;;;;;;;7.80;7.07;;;;;;;;;;5067920;28;20034;-58
2022/12/09 03:29:17;;;;;;;5.37;4.57;;;;;;;;;;5067172;28;20021;-58
2022/12/09 03:35:13;;;;;;;8.03;5.57;;;;;;;;;;5067960;28;20032;-57
2022/12/09 03:38:08;;;;;;;5.87;4.50;;;;;;;;;;5130365;28;20060;-58
2022/12/09 03:40:44;;;;;;;5.43;4.17;;;;;;;;;;5129569;28;20068;-58
2022/12/09 03:43:50;;;;;;;6.10;4.10;;;;;;;;;;5110513;28;20032;-57
2022/12/09 03:46:42;;;;;;;4.40;3.37;;;;;;;;;;5107591;28;20085;-58
2022/12/09 03:49:08;;;;;;;4.50;3.40;;;;;;;;;;5110022;28;20020;-58
2022/12/09 03:51:53;;;;;;;3.67;2.53;;;;;;;;;;5109552;28;20028;-58
2022/12/09 03:54:28;;;;;;;4.33;3.17;;;;;;;;;;5109561;28;20032;-58
2022/12/09 03:57:02;;;;;;;5.10;3.80;;;;;;;;;;5091788;28;20032;-57
2022/12/09 03:59:50;;;;;;;4.50;3.80;;;;;;;;;;5109824;28;20316;-57
2022/12/09 04:05:32;;;;;;;8.47;4.70;;;;;;;;;;5046894;28;20507;-56
2022/12/09 04:08:10;;;;;;;5.27;4.77;;;;;;;;;;5046887;28;20042;-54
2022/12/09 04:11:17;;;;;;;4.73;2.70;;;;;;;;;;5038451;28;20105;-57
2022/12/09 04:14:25;;;;;;;4.73;3.53;;;;;;;;;;5104113;28;20032;-57
2022/12/09 04:17:12;;;;;;;5.70;4.33;;;;;;;;;;5041270;28;20052;-57
2022/12/09 04:23:50;;;;;;;6.50;4.27;;;;;;;;;;5002060;28;20097;-55
2022/12/09 04:29:27;;;;;;;4.33;3.93;;;;;;;;;;5046676;28;20102;-57
2022/12/09 04:32:12;;;;;;;4.83;4.10;;;;;;;;;;5038615;28;20048;-57
2022/12/09 04:34:57;;;;;;;;;;;;;;;;;;;;;
2022/12/09 04:37:36;;;;;;;4.57;4.07;;;;;;;;;;5053854;28;20071;-57
2022/12/09 04:40:33;;;;;;;3.53;2.97;;;;;;;;;;5052856;28;20509;-57
2022/12/09 04:46:14;;;;;;;6.43;4.63;;;;;;;;;;5057761;28;20052;-57
2022/12/09 04:49:03;;;;;;;6.37;4.70;;;;;;;;;;5072219;28;20016;-57
2022/12/09 04:54:31;;;;;;;8.80;4.33;;;;;;;;;;5072520;28;20052;-57
2022/12/09 04:56:59;;;;;;;6.33;4.50;;;;;;;;;;5051376;28;20391;-57
2022/12/09 04:59:40;;;;;;;5.50;4.53;;;;;;;;;;5075730;28;20040;-57
2022/12/09 05:02:15;;;;;;;5.97;5.03;;;;;;;;;;5092711;28;20032;-54
2022/12/09 05:05:08;;;;;;;3.13;2.87;;;;;;;;;;5092505;28;20028;-55
2022/12/09 05:14:05;;;;;;;4.93;4.17;;;;;;;;;;4992448;28;20088;-56
2022/12/09 05:17:02;;;;;;;;;;;;;;;;;;;;;
2022/12/09 05:22:58;;;;;;;5.20;4.10;;;;;;;;;;4919285;29;20099;-57
2022/12/09 05:29:01;;;;;;;8.70;3.53;;;;;;;;;;4898208;29;20051;-57
2022/12/09 05:34:54;;;;;;;5.20;4.80;;;;;;;;;;5132441;28;20042;-57
2022/12/09 05:37:36;;;;;;;3.77;3.27;;;;;;;;;;5132525;28;20027;-58
2022/12/09 05:40:10;;;;;;;5.97;4.43;;;;;;;;;;5132682;28;20028;-54
2022/12/09 05:42:39;;;;;;;6.77;4.63;;;;;;;;;;5113567;28;20086;-57
2022/12/09 05:45:21;;;;;;;7.57;5.33;;;;;;;;;;5110158;28;20050;-56
2022/12/09 05:48:06;;;;;;;4.37;3.80;;;;;;;;;;5110029;28;20024;-58
2022/12/09 05:51:01;;;;;;;4.80;4.30;;;;;;;;;;5109903;28;20024;-58
2022/12/09 05:56:46;;;;;;;4.00;3.43;;;;;;;;;;5070198;28;20052;-58
2022/12/09 05:59:25;;;;;;;5.60;4.90;;;;;;;;;;5109525;28;20043;-57
2022/12/09 06:05:27;;;;;;;4.53;4.13;;;;;;;;;;5108991;28;20078;-55
2022/12/09 06:08:22;;;;;;;10.70;4.73;;;;;;;;;;5109682;28;20028;-58
2022/12/09 06:11:31;;;;;;;4.23;3.03;;;;;;;;;;5068651;28;20044;-57
2022/12/09 06:14:03;;;;;;;5.10;4.60;;;;;;;;;;5055290;28;20025;-56
2022/12/09 06:16:49;;;;;;;6.63;4.37;;;;;;;;;;5082035;28;20044;-57
2022/12/09 06:28:31;;;;;;;4.40;4.00;;;;;;;;;;5089242;28;20111;-57
2022/12/09 06:31:41;;;;;;;7.40;6.00;;;;;;;;;;5086656;28;20044;-55
2022/12/09 06:34:23;;;;;;;7.05;5.13;;;;;;;;;;5069442;28;20075;-55
2022/12/09 06:36:58;;;;;;;8.07;5.47;;;;;;;;;;5028415;28;20030;-56
2022/12/09 06:39:59;;;;;;;;;;;;;;;;;;;;;
2022/12/09 06:42:36;;;;;;;7.27;5.97;;;;;;;;;;5050640;28;20068;-57
2022/12/09 06:45:37;;;;;;;7.50;4.93;;;;;;;;;;5047925;28;20042;-57
2022/12/09 06:48:47;;;;;;;5.77;4.83;;;;;;;;;;5023768;28;20037;-58
2022/12/09 06:51:38;;;;;;;7.43;4.37;;;;;;;;;;5019027;28;20038;-56
2022/12/09 06:54:29;;;;;;;6.27;4.47;;;;;;;;;;5048131;28;20563;-57
2022/12/09 06:57:22;;;;;;;;;;;;;;;;;;;;;
2022/12/09 07:00:20;;;;;;;;;;;;;;;;;;;;;
2022/12/09 07:02:52;;;;;;;4.87;4.30;;;;;;;;;;5109697;28;20060;-58
2022/12/09 07:05:24;;;;;;;6.93;5.70;;;;;;;;;;5110055;28;20051;-56
2022/12/09 07:11:03;;;;;;;9.43;6.70;;;;;;;;;;5096203;28;20089;-54
2022/12/09 07:13:43;;;;;;;7.10;6.10;;;;;;;;;;5110000;28;20098;-57
2022/12/09 07:16:10;;;;;;;;;;;;;;;;;;5110068;28;20053;-58
2022/12/09 07:25:04;;;;;;;;;;;;;;;;;;;;;
2022/12/09 07:30:41;;;;;;;10.40;7.33;;;;;;;;;;5059201;28;20120;-57
2022/12/09 07:33:19;;;;;;;7.80;4.83;;;;;;;;;;5067510;28;20481;-57
2022/12/09 07:36:10;;;;;;;8.43;6.90;;;;;;;;;;5099141;28;20047;-57
2022/12/09 07:39:09;;;;;;;9.13;6.30;;;;;;;;;;5108474;28;20421;-57
2022/12/09 07:41:47;;;;;;;7.30;5.33;;;;;;;;;;5050616;28;20055;-57
2022/12/09 07:48:10;;;;;;;;;;;;;;;;;;;;;
2022/12/09 07:54:02;;;;;;;7.50;4.87;;;;;;;;;;5046141;28;20037;-58
2022/12/09 08:06:23;;;;;;;8.63;7.03;;;;;;;;;;4993444;28;20035;-56
2022/12/09 08:15:23;;;;;;;8.97;8.07;;;;;;;;;;5065565;28;20580;-58
2022/12/09 08:21:33;;;;;;;6.80;6.00;;;;;;;;;;4967600;29;20039;-55
2022/12/09 08:24:11;;;;;;;8.27;5.70;;;;;;;;;;4987335;28;20033;-56
2022/12/09 08:26:54;;;;;;;8.13;6.77;;;;;;;;;;5027050;28;20109;-57
2022/12/09 08:29:42;;;;;;;7.57;5.73;;;;;;;;;;5073413;28;20038;-58
2022/12/09 08:32:40;;;;;;;7.93;6.23;;;;;;;;;;5128830;28;20024;-56
2022/12/09 08:35:23;;;;;;;;;;;;;;;;;;;;;
2022/12/09 08:38:22;;;;;;;14.30;8.23;;;;;;;;;;5128505;28;20071;-56
2022/12/09 08:41:21;;;;;;;7.90;7.17;;;;;;;;;;5109131;28;20095;-55
2022/12/09 08:43:51;;;;;;;7.73;6.43;;;;;;;;;;5099613;28;20067;-57
2022/12/09 08:46:39;;;;;;;12.23;6.13;;;;;;;;;;5107835;28;20028;-56
2022/12/09 08:49:49;;;;;;;12.10;7.60;;;;;;;;;;5108256;28;20040;-54
2022/12/09 08:52:28;;;;;;;14.30;8.77;;;;;;;;;;5108287;28;20039;-57
2022/12/09 09:00:58;;;;;;;6.50;4.40;;;;;;;;;;5097972;28;20036;-55
2022/12/09 09:12:26;;;;;;;9.60;8.53;;;;;;;;;;5128356;28;20060;-55
2022/12/09 09:15:08;;;;;;;8.50;7.73;;;;;;;;;;5110288;28;20030;-55
2022/12/09 09:17:51;;;;;;;9.77;7.17;;;;;;;;;;5110138;28;20039;-54
2022/12/09 09:20:58;;;;;;;7.80;6.60;;;;;;;;;;5110545;28;20023;-55
2022/12/09 09:23:30;;;;;;;8.27;6.27;;;;;;;;;;5128635;28;20065;-56
2022/12/09 09:29:08;;;;;;;8.27;7.23;;;;;;;;;;5127753;28;20035;-56
2022/12/09 09:32:06;;;;;;;7.77;6.90;;;;;;;;;;5113837;28;20024;-55
2022/12/09 09:34:49;;;;;;;6.63;5.83;;;;;;;;;;5094161;28;20058;-54
2022/12/09 09:37:31;;;;;;;11.63;7.80;;;;;;;;;;5128746;28;20028;-55
2022/12/09 09:46:03;;;;;;;8.53;7.73;;;;;;;;;;5071975;28;20048;-57
2022/12/09 09:49:06;;;;;;;12.67;8.27;;;;;;;;;;5078407;28;20032;-57
2022/12/09 09:52:23;;;;;;;7.93;7.13;;;;;;;;;;5093343;28;20031;-54
2022/12/09 09:55:12;;;;;;;8.50;7.67;;;;;;;;;;4995078;28;20570;-57
2022/12/09 09:58:00;;;;;;;12.13;9.30;;;;;;;;;;4979423;28;20061;-55
2022/12/09 10:07:10;;;;;;;12.37;7.87;;;;;;;;;;5090634;28;20123;-57
2022/12/09 10:10:00;;;;;;;8.90;7.17;;;;;;;;;;5098192;28;20469;-56
2022/12/09 10:12:49;;;;;;;7.93;7.18;;;;;;;;;;5097628;28;20023;-54
2022/12/09 10:15:58;;;;;;;9.90;7.60;;;;;;;;;;5097871;28;20396;-57
2022/12/09 10:18:58;;;;;;;;;;;;;;;;;;;;;
2022/12/09 10:24:43;;;;;;;9.33;8.23;;;;;;;;;;5097377;28;20105;-56
2022/12/09 10:27:37;;;;;;;10.37;8.73;;;;;;;;;;5097796;28;20149;-57
2022/12/09 10:33:18;;;;;;;13.70;8.80;;;;;;;;;;5097179;28;20038;-57
2022/12/09 10:36:17;;;;;;;11.37;9.07;;;;;;;;;;5085606;28;20035;-56
2022/12/09 10:47:47;;;;;;;11.70;8.60;;;;;;;;;;5117505;28;20035;-57
2022/12/09 10:54:07;;;;;;;10.93;7.53;;;;;;;;;;5117417;28;20500;-55
2022/12/09 10:56:37;;;;;;;9.73;7.43;;;;;;;;;;5117561;28;20376;-55
2022/12/09 11:02:37;;;;;;;14.27;9.53;;;;;;;;;;5116976;28;20422;-54
2022/12/09 11:05:37;;;;;;;10.83;9.27;;;;;;;;;;5099002;28;20462;-57
2022/12/09 11:08:44;;;;;;;9.32;8.13;;;;;;;;;;5117761;28;20030;-57
2022/12/09 11:17:40;;;;;;;9.60;8.63;;;;;;;;;;5116398;28;20043;-56
2022/12/09 11:20:17;;;;;;;10.40;8.73;;;;;;;;;;5019270;28;20030;-57
2022/12/09 11:23:01;;;;;;;13.10;9.07;;;;;;;;;;5109405;28;20450;-55
2022/12/09 11:26:05;;;;;;;11.00;7.97;;;;;;;;;;5098541;28;20032;-57
2022/12/09 11:29:05;;;;;;;;;;;;;;;;;;;;;
2022/12/09 11:31:54;;;;;;;17.87;8.63;;;;;;;;;;5033831;28;20125;-57
2022/12/09 11:34:52;;;;;;;12.17;9.73;;;;;;;;;;5114679;28;20050;-55
2022/12/09 11:37:37;;;;;;;;;;;;;;;;;;;;;
2022/12/09 11:40:32;;;;;;;10.93;8.40;;;;;;;;;;5111577;28;20042;-58
2022/12/09 11:43:32;;;;;;;;;;;;;;;;;;;;;
2022/12/09 11:46:09;;;;;;;11.18;10.07;;;;;;;;;;5124257;28;20063;-56
2022/12/09 11:49:02;;;;;;;10.50;8.60;;;;;;;;;;5129628;28;20053;-56
2022/12/09 11:52:00;;;;;;;;;;;;;;;;;;;;;
2022/12/09 11:58:03;;;;;;;14.83;9.90;;;;;;;;;;4968438;29;20482;-57
2022/12/09 12:00:42;;;;;;;7.57;6.80;;;;;;;;;;4952795;29;20039;-55
2022/12/09 12:06:29;;;;;;;12.73;11.17;;;;;;;;;;5027484;28;20046;-57
2022/12/09 12:09:14;;;;;;;13.53;9.70;;;;;;;;;;5079698;28;20049;-57
2022/12/09 12:15:21;;;;;;;9.27;8.37;;;;;;;;;;5115614;28;20057;-56
2022/12/09 12:18:04;;;;;;;11.10;9.10;;;;;;;;;;5111680;28;20043;-57
2022/12/09 12:20:49;;;;;;;12.03;9.40;;;;;;;;;;5129807;28;20038;-56
2022/12/09 12:23:34;;;;;;;15.20;9.97;;;;;;;;;;5129358;28;20104;-55
2022/12/09 12:26:19;;;;;;;11.83;9.93;;;;;;;;;;5129632;28;20030;-56
2022/12/09 12:29:13;;;;;;;13.83;8.37;;;;;;;;;;5129553;28;20019;-56
2022/12/09 12:35:12;;;;;;;10.70;7.73;;;;;;;;;;5114135;28;20427;-54
2022/12/09 12:41:38;;;;;;;;;;;;;;;;;;;;;
2022/12/09 12:47:32;;;;;;;12.43;8.77;;;;;;;;;;5129527;28;20053;-55
2022/12/09 12:53:17;;;;;;;10.83;9.37;;;;;;;;;;5118005;28;20047;-55
2022/12/09 12:55:56;;;;;;;9.80;8.27;;;;;;;;;;5109059;28;20028;-55
2022/12/09 12:58:40;;;;;;;13.00;9.37;;;;;;;;;;5128079;28;20051;-55
2022/12/09 13:01:16;;;;;;;9.73;8.77;;;;;;;;;;5127776;28;20055;-56
2022/12/09 13:04:19;;;;;;;10.77;9.63;;;;;;;;;;5109617;28;20119;-52
2022/12/09 13:07:11;;;;;;;11.27;7.87;;;;;;;;;;5129175;28;20103;-56
2022/12/09 13:13:13;;;;;;;9.50;7.93;;;;;;;;;;5027153;28;20069;-55
2022/12/09 13:15:46;;;;;;;15.70;10.77;;;;;;;;;;5119720;28;20039;-54
2022/12/09 13:18:32;;;;;;;10.13;9.13;;;;;;;;;;5127925;28;20062;-53
2022/12/09 13:21:12;;;;;;;12.70;9.27;;;;;;;;;;5126588;28;20016;-55
2022/12/09 13:24:00;;;;;;;12.82;9.88;;;;;;;;;;5128038;28;20024;-54
2022/12/09 13:26:56;;;;;;;10.77;8.53;;;;;;;;;;5128291;28;20049;-55
2022/12/09 13:29:39;;;;;;;13.03;8.70;;;;;;;;;;5128211;28;20042;-56
2022/12/09 13:32:38;;;;;;;11.33;9.77;;;;;;;;;;5128249;28;20035;-53
2022/12/09 13:35:23;;;;;;;8.20;7.40;;;;;;;;;;5104387;28;20045;-56
2022/12/09 13:37:59;;;;;;;13.03;9.90;;;;;;;;;;5109196;28;20477;-56
2022/12/09 13:43:36;;;;;;;11.93;8.33;;;;;;;;;;5130613;28;20062;-57
2022/12/09 13:46:20;;;;;;;12.77;8.70;;;;;;;;;;5131813;28;20481;-53
2022/12/09 13:48:59;;;;;;;12.93;8.30;;;;;;;;;;5131588;28;20476;-55
2022/12/09 13:51:52;;;;;;;12.13;9.37;;;;;;;;;;5131999;28;20027;-56
2022/12/09 14:00:32;;;;;;;12.97;9.13;;;;;;;;;;5103427;28;20046;-57
2022/12/09 14:06:38;;;;;;;16.13;11.13;;;;;;;;;;5025604;28;20077;-56
2022/12/09 14:12:37;;;;;;;;;;;;;;;;;;;;;
2022/12/09 14:15:34;;;;;;;10.47;9.03;;;;;;;;;;5034488;28;19905;-57
2022/12/09 14:18:24;;;;;;;10.87;9.70;;;;;;;;;;5031842;28;20042;-57
2022/12/09 14:24:15;;;;;;;9.20;7.17;;;;;;;;;;5087707;28;20028;-54
2022/12/09 14:27:02;;;;;;;15.60;11.80;;;;;;;;;;5106825;28;20035;-53
2022/12/09 14:45:02;;;;;;;12.63;11.43;;;;;;;;;;5121821;28;20039;-54
2022/12/09 14:47:50;;;;;;;14.67;9.70;;;;;;;;;;5128492;28;20056;-56
2022/12/09 14:54:38;;;;;;;;;;;;;;;;;;;;;
2022/12/09 14:57:31;;;;;;;12.77;11.50;;;;;;;;;;5096738;28;20071;-56
2022/12/09 15:00:07;;;;;;;13.00;9.03;;;;;;;;;;5125584;28;20023;-57
2022/12/09 15:05:18;;;;;;;13.73;11.70;;;;;;;;;;5114801;28;20100;-54
2022/12/09 15:08:06;;;;;;;13.23;11.83;;;;;;;;;;5129568;28;20038;-58
2022/12/09 15:10:54;;;;;;;12.97;11.60;;;;;;;;;;5130120;28;20027;-54
2022/12/09 15:22:44;;;;;;;16.73;12.50;;;;;;;;;;5130190;28;20080;-58
2022/12/09 15:29:08;;;;;;;;;;;;;;;;;;;;;
2022/12/09 15:31:52;;;;;;;13.37;11.97;;;;;;;;;;5125573;28;20449;-55
2022/12/09 15:34:28;;;;;;;11.67;9.77;;;;;;;;;;5107575;28;20145;-56
2022/12/09 15:37:10;;;;;;;14.17;11.77;;;;;;;;;;5104544;28;20056;-56
2022/12/09 15:40:21;;;;;;;16.40;13.53;;;;;;;;;;5090359;28;20039;-55
2022/12/09 15:48:56;;;;;;;12.20;10.80;;;;;;;;;;5101805;28;20044;-56
2022/12/09 15:54:37;;;;;;;13.60;12.20;;;;;;;;;;5096552;28;20028;-56
2022/12/09 15:57:24;;;;;;;17.10;13.63;;;;;;;;;;5104741;28;20097;-57
2022/12/09 15:59:59;;;;;;;13.97;12.47;;;;;;;;;;5088961;28;20036;-57
2022/12/09 16:05:25;;;;;;;19.53;12.53;;;;;;;;;;5060826;28;20461;-55
2022/12/09 16:08:15;;;;;;;19.33;13.97;;;;;;;;;;5100237;28;20043;-57
2022/12/09 16:11:12;;;;;;;20.33;14.30;;;;;;;;;;5105247;28;20039;-55
2022/12/09 16:14:07;;;;;;;16.07;14.40;;;;;;;;;;5116169;28;20024;-57
2022/12/09 16:16:52;;;;;;;17.03;14.17;;;;;;;;;;5115772;28;20476;-56
2022/12/09 16:19:54;;;;;;;14.43;12.80;;;;;;;;;;5116336;28;20061;-58
2022/12/09 16:22:39;;;;;;;13.87;12.27;;;;;;;;;;5013239;28;20104;-58
2022/12/09 16:25:24;;;;;;;16.00;11.53;;;;;;;;;;5026187;28;20493;-57
2022/12/09 16:28:10;;;;;;;20.13;13.37;;;;;;;;;;5096753;28;20043;-56
2022/12/09 16:30:58;;;;;;;25.07;12.03;;;;;;;;;;5063550;28;20040;-55
2022/12/09 16:33:35;;;;;;;15.07;13.47;;;;;;;;;;5114280;28;20554;-57
2022/12/09 16:36:27;;;;;;;15.30;13.33;;;;;;;;;;5115710;28;20118;-55
2022/12/09 16:39:15;;;;;;;15.73;14.10;;;;;;;;;;5116513;28;20761;-58
2022/12/09 16:45:17;;;;;;;18.47;14.93;;;;;;;;;;5012659;28;20038;-57
2022/12/09 16:50:59;;;;;;;20.63;15.27;;;;;;;;;;5008300;28;20030;-56
2022/12/09 16:53:55;;;;;;;22.97;15.57;;;;;;;;;;5093828;28;20351;-56
2022/12/09 16:56:50;;;;;;;20.20;15.93;;;;;;;;;;5076356;28;20048;-55
2022/12/09 16:59:35;;;;;;;20.73;16.53;;;;;;;;;;5030396;28;20387;-57
2022/12/09 17:02:42;;;;;;;17.33;15.17;;;;;;;;;;5032131;28;20130;-56
2022/12/09 17:05:19;;;;;;;15.57;12.57;;;;;;;;;;5031960;28;20107;-51
2022/12/09 17:07:55;;;;;;;23.93;15.47;;;;;;;;;;5032316;28;20037;-56
2022/12/09 17:10:43;;;;;;;16.47;12.13;;;;;;;;;;5031702;28;20393;-58
2022/12/09 17:13:31;;;;;;;21.53;15.77;;;;;;;;;;5002203;28;20049;-56
2022/12/09 17:16:26;;;;;;;;;;;;;;;;;;;;;
2022/12/09 17:19:21;;;;;;;24.10;15.07;;;;;;;;;;5032160;28;20037;-57
2022/12/09 17:22:21;;;;;;;24.23;14.40;;;;;;;;;;5017153;28;20091;-57
2022/12/09 17:25:13;;;;;;;20.67;17.55;;;;;;;;;;5083976;28;20036;-58
2022/12/09 17:28:29;;;;;;;;;;;;;;;;;;;;;
2022/12/09 17:31:15;;;;;;;22.57;17.30;;;;;;;;;;5078173;28;20043;-56
2022/12/09 17:43:03;;;;;;;24.27;17.30;;;;;;;;;;5093757;28;20108;-55
2022/12/09 17:45:53;;;;;;;22.93;17.00;;;;;;;;;;5068707;28;20032;-58
2022/12/09 17:52:19;;;;;;;;;;;;;;;;;;;;;
2022/12/09 17:55:05;;;;;;;22.97;17.13;;;;;;;;;;5105919;28;20452;-55
2022/12/09 17:57:38;;;;;;;23.87;14.80;;;;;;;;;;5114333;28;20088;-55
2022/12/09 18:03:35;;;;;;;18.53;14.37;;;;;;;;;;5096940;28;20028;-57
2022/12/09 18:06:32;;;;;;;;;;;;;;;;;;;;;
2022/12/09 18:15:34;;;;;;;15.20;12.77;;;;;;;;;;4984988;28;20030;-55
2022/12/09 18:18:23;;;;;;;21.93;17.23;;;;;;;;;;4992525;28;20129;-54
2022/12/09 18:20:52;;;;;;;20.37;17.47;;;;;;;;;;4992934;28;20026;-55
2022/12/09 18:29:40;;;;;;;24.17;17.70;;;;;;;;;;5081815;28;20545;-58
2022/12/09 18:32:33;;;;;;;25.43;19.43;;;;;;;;;;5081095;28;20052;-57
2022/12/09 18:38:27;;;;;;;17.87;14.83;;;;;;;;;;5049079;28;20427;-54
2022/12/09 18:46:53;;;;;;;33.53;21.50;;;;;;;;;;5050297;28;20113;-57
2022/12/09 18:52:50;;;;;;;;;;;;;;;;;;;;;
2022/12/09 18:55:34;;;;;;;25.93;17.63;;;;;;;;;;5126344;28;20121;-55
2022/12/09 19:01:11;;;;;;;;;;;;;;;;;;;;;
2022/12/09 19:04:05;;;;;;;21.53;16.77;;;;;;;;;;5128512;28;19951;-55
2022/12/09 19:06:41;;;;;;;22.20;19.77;;;;;;;;;;5130812;28;20087;-56
2022/12/09 19:09:32;;;;;;;24.73;18.27;;;;;;;;;;5131274;28;20049;-56
2022/12/09 19:15:24;;;;;;;23.57;18.77;;;;;;;;;;5047943;28;20530;-55
2022/12/09 19:18:12;;;;;;;26.07;16.30;;;;;;;;;;5042945;28;20056;-57
2022/12/09 19:21:10;;;;;;;24.07;18.17;;;;;;;;;;5030942;28;20026;-56
2022/12/09 19:24:03;;;;;;;18.80;16.63;;;;;;;;;;5048472;28;20041;-56
2022/12/09 19:27:08;;;;;;;24.80;18.17;;;;;;;;;;5048425;28;20041;-56
2022/12/09 19:29:48;;;;;;;;;;;;;;;;;;;;;
2022/12/09 19:32:18;;;;;;;;;;;;;;;;;;5028950;28;20045;-57
2022/12/09 19:38:11;;;;;;;22.37;17.87;;;;;;;;;;5097679;28;20046;-56
2022/12/09 19:41:01;;;;;;;19.73;17.70;;;;;;;;;;5130636;28;20024;-55
2022/12/09 19:43:36;;;;;;;27.38;19.90;;;;;;;;;;5130226;28;20027;-55
2022/12/09 19:46:40;;;;;;;26.00;17.07;;;;;;;;;;5130408;28;20020;-53
2022/12/09 19:49:16;;;;;;;29.57;18.87;;;;;;;;;;5121208;28;20108;-57
2022/12/09 19:52:06;;;;;;;21.67;18.97;;;;;;;;;;5109644;28;20044;-57
2022/12/09 19:54:47;;;;;;;24.15;16.52;;;;;;;;;;5110052;28;20039;-56
2022/12/09 19:57:33;;;;;;;22.40;16.33;;;;;;;;;;5109798;28;20050;-58
2022/12/09 20:00:28;;;;;;;21.10;17.17;;;;;;;;;;5110241;28;20028;-56
2022/12/09 20:15:17;;;;;;;21.23;17.03;;;;;;;;;;5045073;28;20515;-57
2022/12/09 20:18:13;;;;;;;26.33;17.80;;;;;;;;;;5030797;28;20042;-56
2022/12/09 20:21:09;;;;;;;;;;;;;;;;;;;;;
2022/12/09 20:27:30;;;;;;;19.57;17.47;;;;;;;;;;5106183;28;20184;-54
2022/12/09 20:30:16;;;;;;;29.13;19.20;;;;;;;;;;5102984;28;20486;-54
2022/12/09 20:33:29;;;;;;;;;;;;;;;;;;;;;
2022/12/09 20:39:00;;;;;;;19.47;14.80;;;;;;;;;;5083549;28;20104;-57
2022/12/09 20:41:58;;;;;;;;;;;;;;;;;;;;;
2022/12/09 20:50:51;;;;;;;26.83;19.47;;;;;;;;;;5065500;28;20047;-56
2022/12/09 20:53:32;;;;;;;25.13;16.90;;;;;;;;;;5102799;28;20491;-57
2022/12/09 20:56:00;;;;;;;27.03;17.73;;;;;;;;;;5085680;28;20127;-53
2022/12/09 20:59:12;;;;;;;;;;;;;;;;;;;;;
2022/12/09 21:05:00;;;;;;;33.00;18.60;;;;;;;;;;5093597;28;20198;-56
2022/12/09 21:07:45;;;;;;;28.63;19.20;;;;;;;;;;5105192;28;20048;-58
2022/12/09 21:10:33;;;;;;;23.52;17.58;;;;;;;;;;5104771;28;20040;-54
2022/12/09 21:13:26;;;;;;;26.73;17.53;;;;;;;;;;5085607;28;20062;-55
2022/12/09 21:16:18;;;;;;;20.77;15.37;;;;;;;;;;5088194;28;20064;-56
2022/12/09 21:21:49;;;;;;;21.53;15.13;;;;;;;;;;5106526;28;20035;-56
2022/12/09 21:24:33;;;;;;;19.17;16.93;;;;;;;;;;5105653;28;20029;-58
2022/12/09 21:27:05;;;;;;;24.23;17.57;;;;;;;;;;5096264;28;20440;-57
2022/12/09 21:29:56;;;;;;;24.13;17.80;;;;;;;;;;5085161;28;20058;-58
2022/12/09 21:32:47;;;;;;;20.63;17.92;;;;;;;;;;5068502;28;20058;-58
2022/12/09 21:35:50;;;;;;;24.23;17.23;;;;;;;;;;5086125;28;20084;-55
2022/12/09 21:38:28;;;;;;;26.53;18.83;;;;;;;;;;5073243;28;20131;-57
2022/12/09 21:41:26;;;;;;;;;;;;;;;;;;;;;
2022/12/09 21:44:28;;;;;;;23.30;18.17;;;;;;;;;;5083347;28;20068;-58
2022/12/09 21:47:05;;;;;;;17.20;15.23;;;;;;;;;;5053827;28;20040;-57
2022/12/09 21:52:53;;;;;;;;;;;;;;;;;;5068903;28;20035;-57
2022/12/09 21:58:40;;;;;;;25.60;15.97;;;;;;;;;;5056995;28;20064;-56
2022/12/09 22:04:17;;;;;;;24.87;18.70;;;;;;;;;;5131279;28;20427;-55
2022/12/09 22:07:01;;;;;;;18.67;16.73;;;;;;;;;;5132540;28;20054;-57
2022/12/09 22:12:48;;;;;;;;;;;;;;;;;;;;;
2022/12/09 22:15:28;;;;;;;20.30;16.80;;;;;;;;;;5132200;28;20055;-58
2022/12/09 22:18:42;;;;;;;;;;;;;;;;;;;;;
2022/12/09 22:27:45;;;;;;;21.13;17.70;;;;;;;;;;4990184;28;20035;-57
2022/12/09 22:30:17;;;;;;;19.27;14.87;;;;;;;;;;5026864;28;20224;-57
2022/12/09 22:36:05;;;;;;;17.30;14.00;;;;;;;;;;5029159;28;20041;-57
2022/12/09 22:38:56;;;;;;;19.93;16.40;;;;;;;;;;5027046;28;20122;-54
2022/12/09 22:41:37;;;;;;;;;;;;;;;;;;;;;
2022/12/09 22:44:40;;;;;;;24.55;18.55;;;;;;;;;;5026035;28;20135;-57
2022/12/09 22:47:24;;;;;;;21.77;16.20;;;;;;;;;;5028929;28;20037;-57
2022/12/09 22:50:13;;;;;;;22.13;17.40;;;;;;;;;;5027733;28;20081;-57
2022/12/09 22:53:02;;;;;;;;;;;;;;;;;;;;;
2022/12/09 22:55:28;;;;;;;20.60;16.07;;;;;;;;;;5105105;28;20076;-57
2022/12/09 22:58:15;;;;;;;19.70;17.60;;;;;;;;;;5109545;28;20036;-57
2022/12/09 23:00:50;;;;;;;21.10;16.80;;;;;;;;;;5109355;28;20417;-56
2022/12/09 23:03:39;;;;;;;20.37;17.00;;;;;;;;;;5109502;28;20042;-57
2022/12/09 23:06:38;;;;;;;20.90;18.60;;;;;;;;;;5079352;28;20044;-57
2022/12/09 23:09:39;;;;;;;19.93;15.50;;;;;;;;;;5090716;28;20056;-54
2022/12/09 23:12:15;;;;;;;25.07;20.53;;;;;;;;;;5109379;28;20021;-55
2022/12/09 23:14:57;;;;;;;25.93;19.47;;;;;;;;;;5109322;28;20032;-58
2022/12/09 23:23:57;;;;;;;26.03;16.60;;;;;;;;;;5051272;28;20116;-55
2022/12/09 23:32:22;;;;;;;18.90;16.87;;;;;;;;;;5086489;28;20065;-55
2022/12/09 23:35:04;;;;;;;19.97;16.10;;;;;;;;;;5086586;28;20028;-55
2022/12/09 23:37:39;;;;;;;22.17;17.30;;;;;;;;;;5086488;28;20108;-56
2022/12/09 23:40:33;;;;;;;21.27;17.00;;;;;;;;;;5086311;28;20043;-53
2022/12/09 23:43:11;;;;;;;17.83;15.80;;;;;;;;;;5086157;28;20091;-56
2022/12/09 23:45:56;;;;;;;19.87;15.63;;;;;;;;;;5086829;28;20032;-52
2022/12/09 23:48:29;;;;;;;19.97;15.67;;;;;;;;;;5097368;28;20043;-56
2022/12/09 23:50:59;;;;;;;20.47;17.13;;;;;;;;;;4283795;28;23818522;-55
2022/12/09 23:53:44;;;;;;;18.90;15.40;;;;;;;;;;5129959;28;20072;-57
2022/12/09 23:56:50;;;;;;;20.33;16.37;;;;;;;;;;5129686;28;20400;-57
